WetterOnline ( https://www.wetteronline.de )

Wetter aktuell Jungingen

Aktuelles Wetter: Messstetten (900m)

6-stündlich | Neueste Meldungen
Ortszeit Temperatur Wetter
Do, 20.06. 14:00 17.6° C wolkig
Do, 20.06. 8:00 13.8° C wolkig
Do, 20.06. 2:00 14.6° C bewölkt
Mi, 19.06. 20:00 23.7° C wolkenlos
Mi, 19.06. 14:00 23.5° C wolkig
Mi, 19.06. 8:00 17.9° C wolkenlos
Mi, 19.06. 2:00 14.7° C bedeckt
Di, 18.06. 20:00 20.7° C bedeckt
Ortszeit Temperatur Wetter
Do, 20.06. 19:30 17.8° C wolkig
Do, 20.06. 19:20 17.8° C wolkig
Do, 20.06. 19:10 17.0° C wolkig
Do, 20.06. 19:00 16.8° C bewölkt
Do, 20.06. 18:50 16.8° C bewölkt
Do, 20.06. 18:40 17.1° C bewölkt
Do, 20.06. 18:30 17.4° C Sprühregen
Do, 20.06. 18:00 17.4° C bewölkt
Do, 20.06. 17:30 18.2° C leicht bewölkt
Do, 20.06. 17:00 18.1° C leicht bewölkt
Do, 20.06. 16:30 18.1° C wolkig
Ortszeit Relative Feuchte Sichtweite
Do, 20.06. 14:00 69% 70 km
Do, 20.06. 8:00 85% 70 km
Do, 20.06. 2:00 89% 30 km
Mi, 19.06. 20:00 44% 65 km
Mi, 19.06. 14:00 45% 55 km
Mi, 19.06. 8:00 62% 40 km
Mi, 19.06. 2:00 77% 55 km
Di, 18.06. 20:00 73% 50 km
Ortszeit Relative Feuchte Sichtweite
Do, 20.06. 19:30 72% 70 km
Do, 20.06. 19:20 72% -
Do, 20.06. 19:10 75% -
Do, 20.06. 19:00 72% 70 km
Do, 20.06. 18:50 72% -
Do, 20.06. 18:40 77% -
Do, 20.06. 18:30 84% 40 km
Do, 20.06. 18:00 80% 65 km
Do, 20.06. 17:30 71% 45 km
Do, 20.06. 17:00 71% 40 km
Do, 20.06. 16:30 68% 60 km
Ortszeit Niederschlagsmenge Niederschlagsart
Do, 20.06. 14:00 0.1 l/m2 in 6 Std. Regen
Do, 20.06. 8:00 10 l/m2 in 12 Std. Regenschauer
Do, 20.06. 2:00 3 l/m2 in 6 Std. Regenschauer
Mi, 19.06. 20:00 0.0 l/m2 in 12 Std. -
Mi, 19.06. 14:00 0.0 l/m2 in 6 Std. -
Mi, 19.06. 8:00 0.0 l/m2 in 12 Std. -
Mi, 19.06. 2:00 0.0 l/m2 in 6 Std. -
Di, 18.06. 20:00 0.3 l/m2 in 12 Std. Regen
Ortszeit Niederschlagsmenge Niederschlagsart
Do, 20.06. 19:30 0.1 l/m2 in 1 Std. Schneeregen
Do, 20.06. 19:20 keine Meldung -
Do, 20.06. 19:10 keine Meldung -
Do, 20.06. 19:00 0.1 l/m2 in 1 Std. Regen
Do, 20.06. 18:50 keine Meldung -
Do, 20.06. 18:40 keine Meldung -
Do, 20.06. 18:30 0.1 l/m2 in 1 Std. -
Do, 20.06. 18:00 0.0 l/m2 in 1 Std. -
Do, 20.06. 17:30 0.0 l/m2 in 1 Std. -
Do, 20.06. 17:00 0.0 l/m2 in 1 Std. Regen
Do, 20.06. 16:30 0.0 l/m2 in 1 Std. -
Ortszeit Stärke Spitze Richtung
km/h Bft. km/h Grad Sektor
Do, 20.06. 14:00 11 2 18 260° W
Do, 20.06. 8:00 7 2 32 270° W
Do, 20.06. 2:00 4 1 25 170° S
Mi, 19.06. 20:00 4 1 29 330° NW
Mi, 19.06. 14:00 7 2 25 210° SW
Mi, 19.06. 8:00 6 1 17 170° S
Mi, 19.06. 2:00 11 2 18 130° SO
Di, 18.06. 20:00 0 0 47 - -
Ortszeit Stärke Spitze Richtung
km/h Bft. km/h Grad Sektor
Do, 20.06. 19:30 7 2 14 230° SW
Do, 20.06. 19:20 7 2 - 230° SW
Do, 20.06. 19:10 7 2 - 220° SW
Do, 20.06. 19:00 9 2 19 210° SW
Do, 20.06. 18:50 9 2 - 210° SW
Do, 20.06. 18:40 11 2 - 210° SW
Do, 20.06. 18:30 9 2 17 180° S
Do, 20.06. 18:00 7 2 18 170° S
Do, 20.06. 17:30 11 2 18 180° S
Do, 20.06. 17:00 13 3 22 200° S
Do, 20.06. 16:30 11 2 18 230° SW
Ortszeit Untergrenze Bedeckung Gattung
total tief tief mittel hoch
Do, 20.06. 14:00 750 m 8/8 3/8 - - -
Do, 20.06. 8:00 2400 m 8/8 3/8 - - -
Do, 20.06. 2:00 900 m 8/8 7/8 - - -
Mi, 19.06. 20:00 - 0/8 0/8 - - -
Mi, 19.06. 14:00 1800 m 7/8 4/8 - - -
Mi, 19.06. 8:00 - 0/8 0/8 - - -
Mi, 19.06. 2:00 4200 m 8/8 8/8 - - -
Di, 18.06. 20:00 4800 m 8/8 8/8 - - -
Ortszeit Bedeckungsgrad in Achtel und Wolkenuntergrenze
Do, 20.06. 19:30 1(1800m) 8(5400m) 8(6600m)
Do, 20.06. 19:20 1(1800m) 8(5400m) 8(6600m)
Do, 20.06. 19:10 1(1800m) 8(5400m) 8(6600m)
Do, 20.06. 19:00 2(1800m) 7(2400m) 8(5700m)
Do, 20.06. 18:50 2(1800m) 7(2400m) 8(5700m)
Do, 20.06. 18:40 3(2100m) 7(2700m) 8(4200m)
Do, 20.06. 18:30 2(2100m) 7(2400m) 8(4800m)
Do, 20.06. 18:00 6(900m) 7(1500m) 7(5100m)
Do, 20.06. 17:30 2(840m) 3(1140m) 4(6600m)
Do, 20.06. 17:00 3(4500m) 3(5400m)
Do, 20.06. 16:30 2(690m) 7(5100m) 7(6300m)
Ortszeit Stationsdruck (hPa) Tendenz (hPa in 3 Std.)
Do, 20.06. 14:00 913 + 0,3
Do, 20.06. 8:00 912 0,0
Do, 20.06. 2:00 912 + 1,1
Mi, 19.06. 20:00 910 - 0,4
Mi, 19.06. 14:00 911 - 0,1
Mi, 19.06. 8:00 912 0,0
Mi, 19.06. 2:00 913 - 0,4
Di, 18.06. 20:00 914 + 0,3
Ortszeit Stationsdruck (hPa) Tendenz (hPa in 3 Std.)
Do, 20.06. 19:30 913 + 0,3
Do, 20.06. 19:20 913 keine Meldung
Do, 20.06. 19:10 913 keine Meldung
Do, 20.06. 19:00 913 - 0,1
Do, 20.06. 18:50 913 keine Meldung
Do, 20.06. 18:40 913 keine Meldung
Do, 20.06. 18:30 913 - 0,4
Do, 20.06. 18:00 913 - 1,0
Do, 20.06. 17:30 913 - 0,6
Do, 20.06. 17:00 913 - 0,4
Do, 20.06. 16:30 913 - 0,2
Ortszeit Schneehöhe (cm)
Do, 20.06. 14:00 -
Do, 20.06. 8:00 -
Do, 20.06. 2:00 -
Mi, 19.06. 20:00 -
Mi, 19.06. 14:00 -
Mi, 19.06. 8:00 -
Mi, 19.06. 2:00 -
Di, 18.06. 20:00 -
Ortszeit Schneehöhe (cm)
Do, 20.06. 19:30 -
Do, 20.06. 19:20 -
Do, 20.06. 19:10 -
Do, 20.06. 19:00 -
Do, 20.06. 18:50 -
Do, 20.06. 18:40 -
Do, 20.06. 18:30 -
Do, 20.06. 18:00 -
Do, 20.06. 17:30 -
Do, 20.06. 17:00 -
Do, 20.06. 16:30 -
Link zu dieser Seite / Seite empfehlen

Das Wetter in ...